sensor_id;sensor_type;location;lat;lon;timestamp;P1;durP1;ratioP1;P2;durP2;ratioP2
9178;SDS011;4624;48.126;11.546;2022-11-13T00:00:54;10.73;;;9.37;;
9178;SDS011;4624;48.126;11.546;2022-11-13T00:03:21;10.43;;;9.03;;
9178;SDS011;4624;48.126;11.546;2022-11-13T00:05:48;11.60;;;9.50;;
9178;SDS011;4624;48.126;11.546;2022-11-13T00:08:25;11.10;;;9.70;;
9178;SDS011;4624;48.126;11.546;2022-11-13T00:10:58;11.80;;;9.73;;
9178;SDS011;4624;48.126;11.546;2022-11-13T00:13:25;14.67;;;8.57;;
9178;SDS011;4624;48.126;11.546;2022-11-13T00:15:56;11.33;;;9.60;;
9178;SDS011;4624;48.126;11.546;2022-11-13T00:18:23;11.40;;;9.73;;
9178;SDS011;4624;48.126;11.546;2022-11-13T00:20:50;10.23;;;9.13;;
9178;SDS011;4624;48.126;11.546;2022-11-13T00:23:17;12.50;;;9.80;;
9178;SDS011;4624;48.126;11.546;2022-11-13T00:25:45;17.27;;;8.77;;
9178;SDS011;4624;48.126;11.546;2022-11-13T00:28:12;12.47;;;8.00;;
9178;SDS011;4624;48.126;11.546;2022-11-13T00:30:39;10.43;;;8.53;;
9178;SDS011;4624;48.126;11.546;2022-11-13T00:33:06;10.70;;;8.90;;
9178;SDS011;4624;48.126;11.546;2022-11-13T00:35:32;12.60;;;9.03;;
9178;SDS011;4624;48.126;11.546;2022-11-13T00:37:59;11.33;;;8.57;;
9178;SDS011;4624;48.126;11.546;2022-11-13T00:40:26;11.00;;;9.20;;
9178;SDS011;4624;48.126;11.546;2022-11-13T00:42:54;11.83;;;8.97;;
9178;SDS011;4624;48.126;11.546;2022-11-13T00:45:21;11.07;;;8.90;;
9178;SDS011;4624;48.126;11.546;2022-11-13T00:47:47;11.97;;;9.60;;
9178;SDS011;4624;48.126;11.546;2022-11-13T00:50:14;10.73;;;9.43;;
9178;SDS011;4624;48.126;11.546;2022-11-13T00:52:41;12.03;;;9.70;;
9178;SDS011;4624;48.126;11.546;2022-11-13T00:55:08;12.87;;;10.03;;
9178;SDS011;4624;48.126;11.546;2022-11-13T00:57:34;11.57;;;9.70;;
9178;SDS011;4624;48.126;11.546;2022-11-13T01:00:03;9.80;;;8.77;;
9178;SDS011;4624;48.126;11.546;2022-11-13T01:02:31;12.03;;;8.57;;
9178;SDS011;4624;48.126;11.546;2022-11-13T01:04:57;17.67;;;8.47;;
9178;SDS011;4624;48.126;11.546;2022-11-13T01:07:24;27.13;;;7.30;;
9178;SDS011;4624;48.126;11.546;2022-11-13T01:09:51;13.80;;;7.90;;
9178;SDS011;4624;48.126;11.546;2022-11-13T01:12:18;21.63;;;8.40;;
9178;SDS011;4624;48.126;11.546;2022-11-13T01:14:45;18.60;;;8.00;;
9178;SDS011;4624;48.126;11.546;2022-11-13T01:17:13;22.43;;;7.77;;
9178;SDS011;4624;48.126;11.546;2022-11-13T01:19:39;16.50;;;7.30;;
9178;SDS011;4624;48.126;11.546;2022-11-13T01:22:06;15.50;;;8.30;;
9178;SDS011;4624;48.126;11.546;2022-11-13T01:24:33;12.33;;;8.53;;
9178;SDS011;4624;48.126;11.546;2022-11-13T01:26:59;36.07;;;7.60;;
9178;SDS011;4624;48.126;11.546;2022-11-13T01:29:26;10.80;;;8.27;;
9178;SDS011;4624;48.126;11.546;2022-11-13T01:31:53;10.50;;;7.37;;
9178;SDS011;4624;48.126;11.546;2022-11-13T01:34:21;12.63;;;7.93;;
9178;SDS011;4624;48.126;11.546;2022-11-13T01:36:48;15.80;;;8.43;;
9178;SDS011;4624;48.126;11.546;2022-11-13T01:39:15;12.60;;;7.57;;
9178;SDS011;4624;48.126;11.546;2022-11-13T01:41:41;9.50;;;7.30;;
9178;SDS011;4624;48.126;11.546;2022-11-13T01:44:10;11.60;;;7.83;;
9178;SDS011;4624;48.126;11.546;2022-11-13T01:46:39;9.93;;;7.97;;
9178;SDS011;4624;48.126;11.546;2022-11-13T01:49:16;18.30;;;9.33;;
9178;SDS011;4624;48.126;11.546;2022-11-13T01:51:56;23.53;;;8.17;;
9178;SDS011;4624;48.126;11.546;2022-11-13T01:54:26;13.10;;;7.77;;
9178;SDS011;4624;48.126;11.546;2022-11-13T01:56:56;13.10;;;7.73;;
9178;SDS011;4624;48.126;11.546;2022-11-13T01:59:25;11.77;;;6.40;;
9178;SDS011;4624;48.126;11.546;2022-11-13T02:01:54;18.87;;;7.87;;
9178;SDS011;4624;48.126;11.546;2022-11-13T02:04:21;30.07;;;8.10;;
9178;SDS011;4624;48.126;11.546;2022-11-13T02:06:51;19.90;;;7.83;;
9178;SDS011;4624;48.126;11.546;2022-11-13T02:09:21;7.23;;;6.53;;
9178;SDS011;4624;48.126;11.546;2022-11-13T02:11:51;19.83;;;7.17;;
9178;SDS011;4624;48.126;11.546;2022-11-13T02:14:18;11.60;;;6.73;;
9178;SDS011;4624;48.126;11.546;2022-11-13T02:16:48;13.13;;;7.50;;
9178;SDS011;4624;48.126;11.546;2022-11-13T02:19:21;11.20;;;6.93;;
9178;SDS011;4624;48.126;11.546;2022-11-13T02:21:54;15.30;;;6.73;;
9178;SDS011;4624;48.126;11.546;2022-11-13T02:24:26;8.00;;;5.57;;
9178;SDS011;4624;48.126;11.546;2022-11-13T02:26:56;17.07;;;5.70;;
9178;SDS011;4624;48.126;11.546;2022-11-13T02:29:27;6.40;;;5.63;;
9178;SDS011;4624;48.126;11.546;2022-11-13T02:31:54;9.63;;;5.93;;
9178;SDS011;4624;48.126;11.546;2022-11-13T02:34:21;14.23;;;5.80;;
9178;SDS011;4624;48.126;11.546;2022-11-13T02:36:48;8.00;;;6.20;;
9178;SDS011;4624;48.126;11.546;2022-11-13T02:39:15;10.13;;;6.20;;
9178;SDS011;4624;48.126;11.546;2022-11-13T02:41:43;19.63;;;6.97;;
9178;SDS011;4624;48.126;11.546;2022-11-13T02:44:10;34.87;;;7.37;;
9178;SDS011;4624;48.126;11.546;2022-11-13T02:46:37;20.33;;;6.80;;
9178;SDS011;4624;48.126;11.546;2022-11-13T02:49:03;18.20;;;6.93;;
9178;SDS011;4624;48.126;11.546;2022-11-13T02:51:31;8.37;;;7.00;;
9178;SDS011;4624;48.126;11.546;2022-11-13T02:53:58;17.73;;;7.40;;
9178;SDS011;4624;48.126;11.546;2022-11-13T02:56:25;9.10;;;7.23;;
9178;SDS011;4624;48.126;11.546;2022-11-13T02:58:53;9.30;;;7.93;;
9178;SDS011;4624;48.126;11.546;2022-11-13T03:01:20;8.67;;;7.87;;
9178;SDS011;4624;48.126;11.546;2022-11-13T03:03:46;9.87;;;8.60;;
9178;SDS011;4624;48.126;11.546;2022-11-13T03:06:13;8.27;;;7.47;;
9178;SDS011;4624;48.126;11.546;2022-11-13T03:08:40;9.17;;;8.17;;
9178;SDS011;4624;48.126;11.546;2022-11-13T03:11:07;8.60;;;7.30;;
9178;SDS011;4624;48.126;11.546;2022-11-13T03:13:34;8.70;;;7.80;;
9178;SDS011;4624;48.126;11.546;2022-11-13T03:16:09;8.90;;;7.53;;
9178;SDS011;4624;48.126;11.546;2022-11-13T03:18:38;12.30;;;7.40;;
9178;SDS011;4624;48.126;11.546;2022-11-13T03:21:05;8.97;;;7.10;;
9178;SDS011;4624;48.126;11.546;2022-11-13T03:23:33;7.73;;;6.80;;
9178;SDS011;4624;48.126;11.546;2022-11-13T03:26:04;9.27;;;6.50;;
9178;SDS011;4624;48.126;11.546;2022-11-13T03:28:32;9.87;;;7.50;;
9178;SDS011;4624;48.126;11.546;2022-11-13T03:30:59;7.07;;;6.37;;
9178;SDS011;4624;48.126;11.546;2022-11-13T03:33:27;11.97;;;6.40;;
9178;SDS011;4624;48.126;11.546;2022-11-13T03:35:54;14.40;;;6.70;;
9178;SDS011;4624;48.126;11.546;2022-11-13T03:38:21;6.60;;;5.70;;
9178;SDS011;4624;48.126;11.546;2022-11-13T03:40:48;11.00;;;6.20;;
9178;SDS011;4624;48.126;11.546;2022-11-13T03:43:15;9.03;;;6.03;;
9178;SDS011;4624;48.126;11.546;2022-11-13T03:45:43;10.13;;;6.87;;
9178;SDS011;4624;48.126;11.546;2022-11-13T03:48:11;9.93;;;6.57;;
9178;SDS011;4624;48.126;11.546;2022-11-13T03:50:40;8.33;;;6.57;;
9178;SDS011;4624;48.126;11.546;2022-11-13T03:53:08;7.70;;;6.77;;
9178;SDS011;4624;48.126;11.546;2022-11-13T03:55:35;7.03;;;6.37;;
9178;SDS011;4624;48.126;11.546;2022-11-13T03:58:02;11.83;;;6.17;;
9178;SDS011;4624;48.126;11.546;2022-11-13T04:00:29;6.20;;;5.70;;
9178;SDS011;4624;48.126;11.546;2022-11-13T04:02:56;6.53;;;5.93;;
9178;SDS011;4624;48.126;11.546;2022-11-13T04:05:23;7.03;;;6.13;;
9178;SDS011;4624;48.126;11.546;2022-11-13T04:07:51;5.63;;;5.13;;
9178;SDS011;4624;48.126;11.546;2022-11-13T04:10:18;6.23;;;5.70;;
9178;SDS011;4624;48.126;11.546;2022-11-13T04:12:45;5.97;;;5.47;;
9178;SDS011;4624;48.126;11.546;2022-11-13T04:15:11;11.27;;;5.57;;
9178;SDS011;4624;48.126;11.546;2022-11-13T04:17:38;6.03;;;5.43;;
9178;SDS011;4624;48.126;11.546;2022-11-13T04:20:06;5.50;;;5.00;;
9178;SDS011;4624;48.126;11.546;2022-11-13T04:22:34;6.40;;;5.17;;
9178;SDS011;4624;48.126;11.546;2022-11-13T04:25:02;5.17;;;4.77;;
9178;SDS011;4624;48.126;11.546;2022-11-13T04:27:29;4.77;;;4.37;;
9178;SDS011;4624;48.126;11.546;2022-11-13T04:29:56;4.63;;;4.23;;
9178;SDS011;4624;48.126;11.546;2022-11-13T04:32:23;4.37;;;4.03;;
9178;SDS011;4624;48.126;11.546;2022-11-13T04:34:50;4.33;;;3.93;;
9178;SDS011;4624;48.126;11.546;2022-11-13T04:37:16;4.13;;;3.83;;
9178;SDS011;4624;48.126;11.546;2022-11-13T04:39:43;4.77;;;4.23;;
9178;SDS011;4624;48.126;11.546;2022-11-13T04:42:11;5.27;;;4.10;;
9178;SDS011;4624;48.126;11.546;2022-11-13T04:44:55;4.00;;;3.70;;
9178;SDS011;4624;48.126;11.546;2022-11-13T04:47:22;4.53;;;4.13;;
9178;SDS011;4624;48.126;11.546;2022-11-13T04:49:49;4.47;;;4.07;;
9178;SDS011;4624;48.126;11.546;2022-11-13T04:52:15;4.23;;;3.83;;
9178;SDS011;4624;48.126;11.546;2022-11-13T04:54:42;4.13;;;3.73;;
9178;SDS011;4624;48.126;11.546;2022-11-13T04:57:09;4.20;;;3.80;;
9178;SDS011;4624;48.126;11.546;2022-11-13T04:59:37;4.30;;;4.00;;
9178;SDS011;4624;48.126;11.546;2022-11-13T05:02:04;4.20;;;3.80;;
9178;SDS011;4624;48.126;11.546;2022-11-13T05:04:30;3.43;;;3.23;;
9178;SDS011;4624;48.126;11.546;2022-11-13T05:06:57;3.83;;;3.53;;
9178;SDS011;4624;48.126;11.546;2022-11-13T05:09:24;3.97;;;3.57;;
9178;SDS011;4624;48.126;11.546;2022-11-13T05:11:51;3.97;;;3.67;;
9178;SDS011;4624;48.126;11.546;2022-11-13T05:14:17;7.43;;;3.40;;
9178;SDS011;4624;48.126;11.546;2022-11-13T05:16:46;3.33;;;3.10;;
9178;SDS011;4624;48.126;11.546;2022-11-13T05:19:14;3.70;;;3.40;;
9178;SDS011;4624;48.126;11.546;2022-11-13T05:21:41;3.87;;;3.57;;
9178;SDS011;4624;48.126;11.546;2022-11-13T05:24:08;3.57;;;3.20;;
9178;SDS011;4624;48.126;11.546;2022-11-13T05:26:36;5.23;;;3.63;;
9178;SDS011;4624;48.126;11.546;2022-11-13T05:29:03;3.83;;;3.53;;
9178;SDS011;4624;48.126;11.546;2022-11-13T05:31:29;4.47;;;3.80;;
9178;SDS011;4624;48.126;11.546;2022-11-13T05:33:57;4.37;;;3.77;;
9178;SDS011;4624;48.126;11.546;2022-11-13T05:36:24;6.40;;;4.10;;
9178;SDS011;4624;48.126;11.546;2022-11-13T05:38:51;3.57;;;3.27;;
9178;SDS011;4624;48.126;11.546;2022-11-13T05:41:18;3.73;;;3.43;;
9178;SDS011;4624;48.126;11.546;2022-11-13T05:43:46;3.87;;;3.53;;
9178;SDS011;4624;48.126;11.546;2022-11-13T05:46:14;3.80;;;3.50;;
9178;SDS011;4624;48.126;11.546;2022-11-13T05:48:43;3.70;;;3.40;;
9178;SDS011;4624;48.126;11.546;2022-11-13T05:51:12;3.73;;;3.43;;
9178;SDS011;4624;48.126;11.546;2022-11-13T05:53:41;3.60;;;3.40;;
9178;SDS011;4624;48.126;11.546;2022-11-13T05:56:10;3.53;;;3.30;;
9178;SDS011;4624;48.126;11.546;2022-11-13T05:58:38;5.30;;;3.50;;
9178;SDS011;4624;48.126;11.546;2022-11-13T06:01:06;4.40;;;4.10;;
9178;SDS011;4624;48.126;11.546;2022-11-13T06:03:35;7.70;;;4.13;;
9178;SDS011;4624;48.126;11.546;2022-11-13T06:06:02;4.23;;;3.90;;
9178;SDS011;4624;48.126;11.546;2022-11-13T06:08:30;4.17;;;3.77;;
9178;SDS011;4624;48.126;11.546;2022-11-13T06:10:57;4.03;;;3.63;;
9178;SDS011;4624;48.126;11.546;2022-11-13T06:13:25;4.10;;;3.80;;
9178;SDS011;4624;48.126;11.546;2022-11-13T06:15:51;3.70;;;3.40;;
9178;SDS011;4624;48.126;11.546;2022-11-13T06:18:22;4.10;;;3.70;;
9178;SDS011;4624;48.126;11.546;2022-11-13T06:20:49;3.70;;;3.40;;
9178;SDS011;4624;48.126;11.546;2022-11-13T06:23:15;3.97;;;3.60;;
9178;SDS011;4624;48.126;11.546;2022-11-13T06:25:43;3.40;;;3.10;;
9178;SDS011;4624;48.126;11.546;2022-11-13T06:28:10;3.40;;;3.20;;
9178;SDS011;4624;48.126;11.546;2022-11-13T06:30:37;3.20;;;3.00;;
9178;SDS011;4624;48.126;11.546;2022-11-13T06:33:04;3.60;;;3.30;;
9178;SDS011;4624;48.126;11.546;2022-11-13T06:35:30;3.03;;;2.83;;
9178;SDS011;4624;48.126;11.546;2022-11-13T06:37:57;3.50;;;3.20;;
9178;SDS011;4624;48.126;11.546;2022-11-13T06:40:24;3.47;;;3.23;;
9178;SDS011;4624;48.126;11.546;2022-11-13T06:42:52;3.20;;;3.00;;
9178;SDS011;4624;48.126;11.546;2022-11-13T06:45:19;3.10;;;2.90;;
9178;SDS011;4624;48.126;11.546;2022-11-13T06:47:46;3.07;;;2.87;;
9178;SDS011;4624;48.126;11.546;2022-11-13T06:50:12;3.37;;;3.17;;
9178;SDS011;4624;48.126;11.546;2022-11-13T06:52:39;3.00;;;2.80;;
9178;SDS011;4624;48.126;11.546;2022-11-13T06:55:06;3.17;;;2.93;;
9178;SDS011;4624;48.126;11.546;2022-11-13T06:57:33;2.70;;;2.50;;
9178;SDS011;4624;48.126;11.546;2022-11-13T07:00:02;3.07;;;2.87;;
9178;SDS011;4624;48.126;11.546;2022-11-13T07:02:30;3.20;;;2.97;;
9178;SDS011;4624;48.126;11.546;2022-11-13T07:04:56;2.87;;;2.70;;
9178;SDS011;4624;48.126;11.546;2022-11-13T07:07:23;2.87;;;2.67;;
9178;SDS011;4624;48.126;11.546;2022-11-13T07:09:50;2.80;;;2.60;;
9178;SDS011;4624;48.126;11.546;2022-11-13T07:12:17;2.90;;;2.70;;
9178;SDS011;4624;48.126;11.546;2022-11-13T07:14:43;2.80;;;2.60;;
9178;SDS011;4624;48.126;11.546;2022-11-13T07:17:11;2.67;;;2.47;;
9178;SDS011;4624;48.126;11.546;2022-11-13T07:19:38;2.70;;;2.60;;
9178;SDS011;4624;48.126;11.546;2022-11-13T07:22:05;2.47;;;2.27;;
9178;SDS011;4624;48.126;11.546;2022-11-13T07:24:32;2.80;;;2.60;;
9178;SDS011;4624;48.126;11.546;2022-11-13T07:26:58;2.47;;;2.37;;
9178;SDS011;4624;48.126;11.546;2022-11-13T07:29:25;2.67;;;2.47;;
9178;SDS011;4624;48.126;11.546;2022-11-13T07:31:52;2.77;;;2.57;;
9178;SDS011;4624;48.126;11.546;2022-11-13T07:34:20;3.07;;;2.83;;
9178;SDS011;4624;48.126;11.546;2022-11-13T07:36:46;3.17;;;2.97;;
9178;SDS011;4624;48.126;11.546;2022-11-13T07:39:13;3.53;;;3.23;;
9178;SDS011;4624;48.126;11.546;2022-11-13T07:41:40;3.20;;;3.00;;
9178;SDS011;4624;48.126;11.546;2022-11-13T07:44:07;3.57;;;3.27;;
9178;SDS011;4624;48.126;11.546;2022-11-13T07:46:34;2.77;;;2.57;;
9178;SDS011;4624;48.126;11.546;2022-11-13T07:49:00;3.57;;;3.27;;
9178;SDS011;4624;48.126;11.546;2022-11-13T07:51:28;2.97;;;2.77;;
9178;SDS011;4624;48.126;11.546;2022-11-13T07:53:55;3.03;;;2.80;;
9178;SDS011;4624;48.126;11.546;2022-11-13T07:56:22;3.17;;;2.97;;
9178;SDS011;4624;48.126;11.546;2022-11-13T07:58:49;3.07;;;2.87;;
9178;SDS011;4624;48.126;11.546;2022-11-13T08:01:16;3.40;;;3.10;;
9178;SDS011;4624;48.126;11.546;2022-11-13T08:03:43;3.67;;;3.20;;
9178;SDS011;4624;48.126;11.546;2022-11-13T08:06:09;3.67;;;3.37;;
9178;SDS011;4624;48.126;11.546;2022-11-13T08:08:37;3.20;;;2.90;;
9178;SDS011;4624;48.126;11.546;2022-11-13T08:11:04;3.57;;;3.27;;
9178;SDS011;4624;48.126;11.546;2022-11-13T08:13:33;3.40;;;3.20;;
9178;SDS011;4624;48.126;11.546;2022-11-13T08:16:00;3.40;;;3.10;;
9178;SDS011;4624;48.126;11.546;2022-11-13T08:18:27;3.10;;;2.83;;
9178;SDS011;4624;48.126;11.546;2022-11-13T08:20:55;3.57;;;3.27;;
9178;SDS011;4624;48.126;11.546;2022-11-13T08:23:22;3.90;;;3.50;;
9178;SDS011;4624;48.126;11.546;2022-11-13T08:25:50;3.40;;;3.10;;
9178;SDS011;4624;48.126;11.546;2022-11-13T08:28:17;4.00;;;3.70;;
9178;SDS011;4624;48.126;11.546;2022-11-13T08:30:44;3.60;;;3.30;;
9178;SDS011;4624;48.126;11.546;2022-11-13T08:33:11;4.10;;;3.77;;
9178;SDS011;4624;48.126;11.546;2022-11-13T08:35:38;3.90;;;3.60;;
9178;SDS011;4624;48.126;11.546;2022-11-13T08:38:05;4.00;;;3.70;;
9178;SDS011;4624;48.126;11.546;2022-11-13T08:40:33;4.57;;;4.13;;
9178;SDS011;4624;48.126;11.546;2022-11-13T08:43:02;4.50;;;4.10;;
9178;SDS011;4624;48.126;11.546;2022-11-13T08:45:29;4.70;;;4.30;;
9178;SDS011;4624;48.126;11.546;2022-11-13T08:47:57;4.57;;;4.17;;
9178;SDS011;4624;48.126;11.546;2022-11-13T08:50:25;5.33;;;4.80;;
9178;SDS011;4624;48.126;11.546;2022-11-13T08:52:53;6.07;;;5.53;;
9178;SDS011;4624;48.126;11.546;2022-11-13T08:55:20;6.00;;;5.40;;
9178;SDS011;4624;48.126;11.546;2022-11-13T08:57:47;6.03;;;5.43;;
9178;SDS011;4624;48.126;11.546;2022-11-13T09:00:16;5.73;;;5.13;;
9178;SDS011;4624;48.126;11.546;2022-11-13T09:02:43;6.23;;;5.50;;
9178;SDS011;4624;48.126;11.546;2022-11-13T09:05:10;5.90;;;5.30;;
9178;SDS011;4624;48.126;11.546;2022-11-13T09:07:38;7.13;;;6.17;;
9178;SDS011;4624;48.126;11.546;2022-11-13T09:10:05;6.87;;;5.73;;
9178;SDS011;4624;48.126;11.546;2022-11-13T09:12:32;6.83;;;6.13;;
9178;SDS011;4624;48.126;11.546;2022-11-13T09:14:59;7.70;;;6.57;;
9178;SDS011;4624;48.126;11.546;2022-11-13T09:17:27;6.90;;;6.20;;
9178;SDS011;4624;48.126;11.546;2022-11-13T09:19:54;8.13;;;7.23;;
9178;SDS011;4624;48.126;11.546;2022-11-13T09:22:21;7.33;;;6.63;;
9178;SDS011;4624;48.126;11.546;2022-11-13T09:24:47;7.37;;;6.67;;
9178;SDS011;4624;48.126;11.546;2022-11-13T09:27:14;8.67;;;6.87;;
9178;SDS011;4624;48.126;11.546;2022-11-13T09:29:41;6.80;;;6.20;;
9178;SDS011;4624;48.126;11.546;2022-11-13T09:32:08;8.03;;;7.23;;
9178;SDS011;4624;48.126;11.546;2022-11-13T09:34:36;7.80;;;7.00;;
9178;SDS011;4624;48.126;11.546;2022-11-13T09:37:03;8.07;;;7.27;;
9178;SDS011;4624;48.126;11.546;2022-11-13T09:39:29;7.80;;;7.10;;
9178;SDS011;4624;48.126;11.546;2022-11-13T09:41:58;8.00;;;7.13;;
9178;SDS011;4624;48.126;11.546;2022-11-13T09:44:30;7.57;;;6.90;;
9178;SDS011;4624;48.126;11.546;2022-11-13T09:47:05;7.43;;;6.73;;
9178;SDS011;4624;48.126;11.546;2022-11-13T09:49:39;9.73;;;7.10;;
9178;SDS011;4624;48.126;11.546;2022-11-13T09:52:10;6.77;;;6.17;;
9178;SDS011;4624;48.126;11.546;2022-11-13T09:54:40;7.27;;;6.57;;
9178;SDS011;4624;48.126;11.546;2022-11-13T09:57:11;6.80;;;5.77;;
9178;SDS011;4624;48.126;11.546;2022-11-13T09:59:49;7.07;;;6.37;;
9178;SDS011;4624;48.126;11.546;2022-11-13T10:02:22;7.40;;;6.57;;
9178;SDS011;4624;48.126;11.546;2022-11-13T10:05:02;6.70;;;6.10;;
9178;SDS011;4624;48.126;11.546;2022-11-13T10:07:39;6.07;;;5.40;;
9178;SDS011;4624;48.126;11.546;2022-11-13T10:10:19;47.90;;;25.67;;
9178;SDS011;4624;48.126;11.546;2022-11-13T10:12:55;6.33;;;5.73;;
9178;SDS011;4624;48.126;11.546;2022-11-13T10:15:23;4.63;;;4.33;;
9178;SDS011;4624;48.126;11.546;2022-11-13T10:17:51;5.00;;;4.60;;
9178;SDS011;4624;48.126;11.546;2022-11-13T10:20:24;5.37;;;4.87;;
9178;SDS011;4624;48.126;11.546;2022-11-13T10:22:58;5.30;;;4.90;;
9178;SDS011;4624;48.126;11.546;2022-11-13T10:25:34;5.43;;;4.77;;
9178;SDS011;4624;48.126;11.546;2022-11-13T10:28:08;5.20;;;4.70;;
9178;SDS011;4624;48.126;11.546;2022-11-13T10:30:44;5.20;;;4.50;;
9178;SDS011;4624;48.126;11.546;2022-11-13T10:33:14;4.43;;;4.10;;
9178;SDS011;4624;48.126;11.546;2022-11-13T10:35:46;5.23;;;4.73;;
9178;SDS011;4624;48.126;11.546;2022-11-13T10:38:23;5.30;;;4.80;;
9178;SDS011;4624;48.126;11.546;2022-11-13T10:41:02;4.77;;;4.27;;
9178;SDS011;4624;48.126;11.546;2022-11-13T10:43:32;5.23;;;4.83;;
9178;SDS011;4624;48.126;11.546;2022-11-13T10:46:00;5.43;;;4.70;;
9178;SDS011;4624;48.126;11.546;2022-11-13T10:48:28;5.10;;;4.60;;
9178;SDS011;4624;48.126;11.546;2022-11-13T10:50:58;4.90;;;4.40;;
9178;SDS011;4624;48.126;11.546;2022-11-13T10:53:31;5.00;;;4.60;;
9178;SDS011;4624;48.126;11.546;2022-11-13T10:56:10;5.30;;;4.90;;
9178;SDS011;4624;48.126;11.546;2022-11-13T10:58:39;4.90;;;4.50;;
9178;SDS011;4624;48.126;11.546;2022-11-13T11:01:12;4.53;;;4.13;;
9178;SDS011;4624;48.126;11.546;2022-11-13T11:03:47;4.47;;;4.07;;
9178;SDS011;4624;48.126;11.546;2022-11-13T11:06:16;4.70;;;4.30;;
9178;SDS011;4624;48.126;11.546;2022-11-13T11:08:42;4.80;;;4.40;;
9178;SDS011;4624;48.126;11.546;2022-11-13T11:11:12;5.93;;;4.37;;
9178;SDS011;4624;48.126;11.546;2022-11-13T11:14:09;4.50;;;4.10;;
9178;SDS011;4624;48.126;11.546;2022-11-13T11:16:42;4.80;;;4.40;;
9178;SDS011;4624;48.126;11.546;2022-11-13T11:19:11;5.10;;;4.60;;
9178;SDS011;4624;48.126;11.546;2022-11-13T11:21:42;4.40;;;4.00;;
9178;SDS011;4624;48.126;11.546;2022-11-13T11:24:13;4.90;;;4.33;;
9178;SDS011;4624;48.126;11.546;2022-11-13T11:26:44;5.30;;;4.90;;
9178;SDS011;4624;48.126;11.546;2022-11-13T11:29:18;3.43;;;3.13;;
9178;SDS011;4624;48.126;11.546;2022-11-13T11:31:52;4.10;;;3.80;;
9178;SDS011;4624;48.126;11.546;2022-11-13T11:34:24;4.00;;;3.70;;
9178;SDS011;4624;48.126;11.546;2022-11-13T11:36:59;4.13;;;3.83;;
9178;SDS011;4624;48.126;11.546;2022-11-13T11:39:33;4.10;;;3.80;;
9178;SDS011;4624;48.126;11.546;2022-11-13T11:42:09;4.03;;;3.43;;
9178;SDS011;4624;48.126;11.546;2022-11-13T11:44:55;4.00;;;3.70;;
9178;SDS011;4624;48.126;11.546;2022-11-13T11:47:28;4.00;;;3.70;;
9178;SDS011;4624;48.126;11.546;2022-11-13T11:49:55;4.20;;;3.90;;
9178;SDS011;4624;48.126;11.546;2022-11-13T11:52:27;5.00;;;4.10;;
9178;SDS011;4624;48.126;11.546;2022-11-13T11:55:06;4.53;;;4.13;;
9178;SDS011;4624;48.126;11.546;2022-11-13T11:57:46;5.00;;;4.50;;
9178;SDS011;4624;48.126;11.546;2022-11-13T12:00:16;4.80;;;4.40;;
9178;SDS011;4624;48.126;11.546;2022-11-13T12:02:57;5.27;;;4.77;;
9178;SDS011;4624;48.126;11.546;2022-11-13T12:05:36;5.60;;;5.10;;
9178;SDS011;4624;48.126;11.546;2022-11-13T12:08:14;5.00;;;4.60;;
9178;SDS011;4624;48.126;11.546;2022-11-13T12:10:48;5.40;;;4.90;;
9178;SDS011;4624;48.126;11.546;2022-11-13T12:13:25;6.10;;;5.57;;
9178;SDS011;4624;48.126;11.546;2022-11-13T12:15:57;6.97;;;6.37;;
9178;SDS011;4624;48.126;11.546;2022-11-13T12:18:31;7.07;;;6.40;;
9178;SDS011;4624;48.126;11.546;2022-11-13T12:21:08;6.87;;;6.27;;
9178;SDS011;4624;48.126;11.546;2022-11-13T12:23:50;7.30;;;6.53;;
9178;SDS011;4624;48.126;11.546;2022-11-13T12:26:38;9.43;;;7.43;;
9178;SDS011;4624;48.126;11.546;2022-11-13T12:29:14;9.60;;;8.00;;
9178;SDS011;4624;48.126;11.546;2022-11-13T12:31:54;8.30;;;7.50;;
9178;SDS011;4624;48.126;11.546;2022-11-13T12:34:30;9.10;;;7.80;;
9178;SDS011;4624;48.126;11.546;2022-11-13T12:37:04;8.60;;;7.67;;
9178;SDS011;4624;48.126;11.546;2022-11-13T12:39:37;8.63;;;7.20;;
9178;SDS011;4624;48.126;11.546;2022-11-13T12:42:11;9.33;;;7.83;;
9178;SDS011;4624;48.126;11.546;2022-11-13T12:44:46;8.10;;;7.30;;
9178;SDS011;4624;48.126;11.546;2022-11-13T12:47:19;8.63;;;7.83;;
9178;SDS011;4624;48.126;11.546;2022-11-13T12:49:56;9.80;;;8.23;;
9178;SDS011;4624;48.126;11.546;2022-11-13T12:52:24;8.97;;;8.07;;
9178;SDS011;4624;48.126;11.546;2022-11-13T12:55:01;9.07;;;7.50;;
9178;SDS011;4624;48.126;11.546;2022-11-13T12:57:30;10.47;;;8.20;;
9178;SDS011;4624;48.126;11.546;2022-11-13T12:59:57;9.23;;;8.23;;
9178;SDS011;4624;48.126;11.546;2022-11-13T13:02:37;9.17;;;7.80;;
9178;SDS011;4624;48.126;11.546;2022-11-13T13:05:13;8.93;;;8.03;;
9178;SDS011;4624;48.126;11.546;2022-11-13T13:07:51;9.23;;;7.87;;
9178;SDS011;4624;48.126;11.546;2022-11-13T13:10:46;8.70;;;7.80;;
9178;SDS011;4624;48.126;11.546;2022-11-13T13:13:22;8.93;;;7.87;;
9178;SDS011;4624;48.126;11.546;2022-11-13T13:15:56;8.97;;;7.90;;
9178;SDS011;4624;48.126;11.546;2022-11-13T13:18:27;8.40;;;7.50;;
9178;SDS011;4624;48.126;11.546;2022-11-13T13:21:01;8.70;;;7.70;;
9178;SDS011;4624;48.126;11.546;2022-11-13T13:23:31;7.83;;;6.73;;
9178;SDS011;4624;48.126;11.546;2022-11-13T13:26:03;8.67;;;7.20;;
9178;SDS011;4624;48.126;11.546;2022-11-13T13:28:31;8.00;;;7.00;;
9178;SDS011;4624;48.126;11.546;2022-11-13T13:31:05;7.80;;;6.90;;
9178;SDS011;4624;48.126;11.546;2022-11-13T13:33:42;8.70;;;7.57;;
9178;SDS011;4624;48.126;11.546;2022-11-13T13:36:18;7.67;;;6.87;;
9178;SDS011;4624;48.126;11.546;2022-11-13T13:38:52;8.47;;;7.33;;
9178;SDS011;4624;48.126;11.546;2022-11-13T13:41:30;7.83;;;6.87;;
9178;SDS011;4624;48.126;11.546;2022-11-13T13:44:14;7.23;;;6.53;;
9178;SDS011;4624;48.126;11.546;2022-11-13T13:46:55;8.47;;;7.23;;
9178;SDS011;4624;48.126;11.546;2022-11-13T13:49:23;7.40;;;6.60;;
9178;SDS011;4624;48.126;11.546;2022-11-13T13:51:52;9.23;;;7.47;;
9178;SDS011;4624;48.126;11.546;2022-11-13T13:54:21;9.90;;;7.20;;
9178;SDS011;4624;48.126;11.546;2022-11-13T13:56:52;8.40;;;7.23;;
9178;SDS011;4624;48.126;11.546;2022-11-13T13:59:28;8.23;;;7.03;;
9178;SDS011;4624;48.126;11.546;2022-11-13T14:01:58;8.13;;;7.33;;
9178;SDS011;4624;48.126;11.546;2022-11-13T14:04:27;9.10;;;7.37;;
9178;SDS011;4624;48.126;11.546;2022-11-13T14:06:55;8.13;;;7.17;;
9178;SDS011;4624;48.126;11.546;2022-11-13T14:09:24;9.03;;;7.67;;
9178;SDS011;4624;48.126;11.546;2022-11-13T14:11:56;8.80;;;7.50;;
9178;SDS011;4624;48.126;11.546;2022-11-13T14:14:24;7.30;;;6.60;;
9178;SDS011;4624;48.126;11.546;2022-11-13T14:16:51;8.30;;;7.43;;
9178;SDS011;4624;48.126;11.546;2022-11-13T14:19:19;9.37;;;7.73;;
9178;SDS011;4624;48.126;11.546;2022-11-13T14:21:47;8.77;;;7.10;;
9178;SDS011;4624;48.126;11.546;2022-11-13T14:24:16;7.00;;;6.30;;
9178;SDS011;4624;48.126;11.546;2022-11-13T14:26:46;7.57;;;6.73;;
9178;SDS011;4624;48.126;11.546;2022-11-13T14:29:20;8.17;;;6.93;;
9178;SDS011;4624;48.126;11.546;2022-11-13T14:31:51;8.40;;;7.60;;
9178;SDS011;4624;48.126;11.546;2022-11-13T14:34:20;7.70;;;6.83;;
9178;SDS011;4624;48.126;11.546;2022-11-13T14:36:48;7.13;;;6.43;;
9178;SDS011;4624;48.126;11.546;2022-11-13T14:39:21;7.90;;;7.10;;
9178;SDS011;4624;48.126;11.546;2022-11-13T14:41:52;8.40;;;6.63;;
9178;SDS011;4624;48.126;11.546;2022-11-13T14:44:26;7.70;;;7.00;;
9178;SDS011;4624;48.126;11.546;2022-11-13T14:46:58;9.00;;;7.00;;
9178;SDS011;4624;48.126;11.546;2022-11-13T14:49:26;7.77;;;6.23;;
9178;SDS011;4624;48.126;11.546;2022-11-13T14:51:54;7.37;;;6.57;;
9178;SDS011;4624;48.126;11.546;2022-11-13T14:54:26;7.23;;;6.50;;
9178;SDS011;4624;48.126;11.546;2022-11-13T14:57:06;7.43;;;6.57;;
9178;SDS011;4624;48.126;11.546;2022-11-13T14:59:35;10.23;;;6.13;;
9178;SDS011;4624;48.126;11.546;2022-11-13T15:02:03;7.07;;;6.20;;
9178;SDS011;4624;48.126;11.546;2022-11-13T15:04:30;7.53;;;6.63;;
9178;SDS011;4624;48.126;11.546;2022-11-13T15:06:58;9.67;;;7.00;;
9178;SDS011;4624;48.126;11.546;2022-11-13T15:09:26;7.40;;;6.70;;
9178;SDS011;4624;48.126;11.546;2022-11-13T15:11:54;8.00;;;7.20;;